KGRK

Robert Gray AAF Airport

Fort Hood/Killeen, Texas, USA
METAR KGRK 142358Z AUTO 16012KT 10SM SCT140 34/18 A2989 RMK AO2 SLP109 T03360183 10348 20319 57013
Observed Flight Rules
Aug-14 @ 23:58 UTC (an hour ago) Visual Flight Rules
Wind Visibility Clouds
160° at 12 knots 10 miles
  • Scattered at 14,000' AGL
Temperatures Readings
Current 34°C / 93°F
Dewpoint 18°C / 64°F
Humidity 39%
Altimeter 29.89" Hg
Pressure 1010.9 hPa
Elevation 309
METAR KGRK 142358Z AUTO 16012KT 10SM SCT140 34/18 A2989 RMK AO2 SLP109 T03360183 10348 20319 57013
Observed Flight Rules
Aug-14 @ 23:58 UTC
(an hour ago)
VFR
Wind Visibility
160° at 12 knots 10 miles
Clouds
  • Scattered at 14,000' AGL
Temperature Dewpoint
34°C / 93°F 18°C / 64°F
Humidity Altimeter Pressure
39% 29.89" Hg 1010.9 hPa